createdAt,value
2018-09-27T00:02:17.098Z,6.00
2018-09-27T00:04:46.795Z,6.13
2018-09-27T00:07:15.910Z,6.78
2018-09-27T00:09:46.125Z,5.42
2018-09-27T00:12:15.439Z,6.90
2018-09-27T00:14:44.693Z,6.33
2018-09-27T00:17:13.844Z,7.70
2018-09-27T00:19:43.045Z,4.60
2018-09-27T00:22:12.192Z,5.60
2018-09-27T00:24:41.508Z,7.97
2018-09-27T00:27:10.592Z,10.13
2018-09-27T00:29:39.767Z,6.12
2018-09-27T00:32:08.926Z,9.05
2018-09-27T00:34:38.115Z,9.73
2018-09-27T00:37:07.257Z,7.93
2018-09-27T00:39:36.442Z,10.40
2018-09-27T00:42:05.747Z,8.73
2018-09-27T00:44:34.893Z,6.20
2018-09-27T00:47:03.962Z,5.03
2018-09-27T00:49:33.345Z,7.92
2018-09-27T00:52:02.951Z,7.00
2018-09-27T00:54:31.847Z,5.97
2018-09-27T00:57:00.683Z,9.23
2018-09-27T00:59:29.456Z,8.55
2018-09-27T01:01:58.895Z,12.10
2018-09-27T01:04:27.577Z,9.88
2018-09-27T01:06:57.856Z,8.27
2018-09-27T01:09:26.849Z,8.15
2018-09-27T01:11:55.953Z,15.10
2018-09-27T01:14:24.668Z,9.20
2018-09-27T01:16:53.498Z,10.40
2018-09-27T01:19:22.477Z,9.15
2018-09-27T01:21:51.895Z,8.65
2018-09-27T01:24:21.305Z,7.77
2018-09-27T01:26:50.326Z,9.27
2018-09-27T01:29:19.425Z,10.95
2018-09-27T01:31:48.765Z,9.90
2018-09-27T01:34:18.681Z,11.88
2018-09-27T01:36:47.530Z,9.90
2018-09-27T01:39:16.291Z,9.17
2018-09-27T01:41:45.080Z,8.25
2018-09-27T01:44:14.886Z,11.05
2018-09-27T01:46:45.820Z,13.05
2018-09-27T01:49:14.615Z,10.55
2018-09-27T01:51:44.030Z,9.90
2018-09-27T01:54:13.103Z,7.25
2018-09-27T01:56:42.440Z,9.55
2018-09-27T01:59:11.294Z,7.90
2018-09-27T02:01:40.176Z,8.08
2018-09-27T02:04:08.994Z,10.38
2018-09-27T02:06:40.705Z,11.88
2018-09-27T02:09:10.075Z,10.45
2018-09-27T02:11:39.116Z,10.43
2018-09-27T02:14:08.128Z,10.63
2018-09-27T02:16:37.137Z,8.60
2018-09-27T02:19:05.971Z,8.43
2018-09-27T02:21:38.920Z,10.00
2018-09-27T02:24:09.112Z,10.75
2018-09-27T02:26:38.688Z,12.40
2018-09-27T02:29:07.712Z,9.20
2018-09-27T02:31:37.333Z,9.40
2018-09-27T02:34:06.184Z,8.28
2018-09-27T02:36:34.971Z,8.50
2018-09-27T02:39:04.699Z,11.48
2018-09-27T02:41:33.458Z,10.15
2018-09-27T02:44:02.333Z,9.10
2018-09-27T02:46:31.288Z,9.17
2018-09-27T02:49:00.586Z,9.75
2018-09-27T02:51:29.322Z,9.23
2018-09-27T02:53:58.225Z,6.70
2018-09-27T02:56:27.259Z,12.43
2018-09-27T02:58:56.973Z,9.25
2018-09-27T03:01:25.758Z,6.63
2018-09-27T03:03:54.701Z,7.25
2018-09-27T03:06:23.545Z,9.03
2018-09-27T03:08:53.604Z,7.33
2018-09-27T03:11:23.340Z,9.98
2018-09-27T03:13:52.331Z,9.55
2018-09-27T03:16:21.784Z,10.07
2018-09-27T03:18:52.440Z,8.08
2018-09-27T03:21:22.663Z,7.13
2018-09-27T03:23:52.067Z,12.85
2018-09-27T03:26:20.922Z,8.10
2018-09-27T03:28:50.628Z,8.10
2018-09-27T03:31:20.145Z,10.05
2018-09-27T03:33:49.369Z,7.28
2018-09-27T03:36:18.097Z,8.37
2018-09-27T03:38:48.005Z,9.43
2018-09-27T03:41:17.448Z,9.25
2018-09-27T03:43:46.301Z,9.68
2018-09-27T03:46:16.933Z,11.87
2018-09-27T03:48:47.564Z,8.83
2018-09-27T03:51:17.585Z,8.33
2018-09-27T03:53:47.156Z,9.73
2018-09-27T03:56:16.111Z,10.18
2018-09-27T03:58:45.239Z,11.35
2018-09-27T04:01:14.743Z,9.23
2018-09-27T04:03:43.475Z,8.55
2018-09-27T04:06:13.529Z,11.83
2018-09-27T04:08:42.989Z,11.55
2018-09-27T04:11:13.591Z,10.03
2018-09-27T04:13:42.527Z,10.27
2018-09-27T04:16:11.325Z,9.93
2018-09-27T04:18:40.860Z,10.58
2018-09-27T04:21:10.811Z,12.68
2018-09-27T04:23:39.671Z,8.98
2018-09-27T04:26:10.496Z,12.47
2018-09-27T04:28:39.966Z,9.40
2018-09-27T04:31:10.728Z,10.15
2018-09-27T04:33:40.093Z,13.00
2018-09-27T04:36:10.107Z,10.78
2018-09-27T04:38:39.313Z,12.00
2018-09-27T04:41:08.234Z,8.67
2018-09-27T04:43:37.990Z,8.88
2018-09-27T04:46:06.777Z,9.95
2018-09-27T04:48:37.608Z,12.43
2018-09-27T04:51:07.107Z,9.28
2018-09-27T04:53:36.356Z,12.07
2018-09-27T04:56:06.321Z,8.53
2018-09-27T04:58:35.293Z,9.73
2018-09-27T05:01:04.913Z,9.33
2018-09-27T05:03:37.606Z,14.05
2018-09-27T05:06:07.295Z,9.13
2018-09-27T05:08:36.853Z,10.72
2018-09-27T05:11:05.719Z,9.10
2018-09-27T05:13:34.450Z,9.33
2018-09-27T05:16:03.261Z,11.03
2018-09-27T05:18:32.023Z,8.73
2018-09-27T05:21:02.393Z,8.53
2018-09-27T05:23:31.289Z,9.95
2018-09-27T05:26:01.076Z,11.10
2018-09-27T05:28:30.450Z,10.20
2018-09-27T05:30:59.970Z,9.65
2018-09-27T05:33:29.359Z,8.78
2018-09-27T05:35:58.380Z,8.20
2018-09-27T05:38:27.380Z,8.23
2018-09-27T05:40:57.399Z,8.25
2018-09-27T05:43:26.319Z,6.30
2018-09-27T05:45:57.479Z,9.08
2018-09-27T05:48:26.270Z,10.07
2018-09-27T05:50:56.536Z,11.12
2018-09-27T05:53:26.100Z,10.93
2018-09-27T05:55:55.501Z,6.90
2018-09-27T05:58:24.242Z,9.23
2018-09-27T06:00:53.112Z,9.47
2018-09-27T06:03:22.178Z,8.90
2018-09-27T06:05:50.951Z,10.70
2018-09-27T06:08:19.701Z,11.83
2018-09-27T06:10:49.669Z,8.85
2018-09-27T06:13:19.361Z,9.68
2018-09-27T06:15:48.306Z,8.20
2018-09-27T06:18:19.085Z,9.25
2018-09-27T06:20:48.687Z,9.20
2018-09-27T06:23:18.431Z,8.98
2018-09-27T06:25:48.608Z,7.80
2018-09-27T06:28:18.358Z,8.03
2018-09-27T06:30:47.804Z,7.40
2018-09-27T06:33:16.511Z,7.45
2018-09-27T06:35:45.601Z,8.63
2018-09-27T06:38:14.425Z,8.43
2018-09-27T06:40:43.855Z,12.07
2018-09-27T06:43:13.216Z,11.73
2018-09-27T06:45:42.254Z,11.57
2018-09-27T06:48:11.856Z,14.03
2018-09-27T06:53:20.013Z,13.32
2018-09-27T06:55:50.445Z,13.88
2018-09-27T06:58:19.952Z,9.88
2018-09-27T07:00:49.535Z,12.98
2018-09-27T07:03:18.664Z,15.30
2018-09-27T07:05:48.232Z,14.98
2018-09-27T07:08:17.150Z,13.45
2018-09-27T07:10:46.507Z,14.03
2018-09-27T07:13:16.081Z,14.15
2018-09-27T07:15:45.546Z,14.93
2018-09-27T07:18:14.517Z,11.45
2018-09-27T07:20:43.283Z,14.78
2018-09-27T07:23:12.025Z,14.03
2018-09-27T07:25:46.317Z,12.23
2018-09-27T07:28:15.066Z,12.20
2018-09-27T07:30:44.050Z,15.32
2018-09-27T07:33:13.020Z,13.10
2018-09-27T07:35:41.954Z,9.98
2018-09-27T07:38:10.896Z,11.53
2018-09-27T07:40:40.657Z,10.90
2018-09-27T07:43:09.573Z,15.50
2018-09-27T07:45:38.442Z,14.80
2018-09-27T07:48:07.418Z,14.20
2018-09-27T07:50:36.319Z,12.63
2018-09-27T07:53:05.220Z,14.63
2018-09-27T07:55:34.009Z,12.55
2018-09-27T07:58:03.393Z,12.03
2018-09-27T08:00:32.190Z,13.98
2018-09-27T08:03:01.268Z,17.37
2018-09-27T08:05:31.403Z,12.73
2018-09-27T08:08:00.316Z,13.20
2018-09-27T08:10:30.763Z,12.63
2018-09-27T08:12:59.920Z,11.47
2018-09-27T08:15:30.022Z,13.58
2018-09-27T08:17:58.817Z,12.47
2018-09-27T08:20:28.515Z,15.45
2018-09-27T08:22:57.317Z,14.25
2018-09-27T08:25:26.907Z,10.53
2018-09-27T08:27:56.373Z,14.43
2018-09-27T08:30:25.989Z,14.68
2018-09-27T08:32:54.949Z,16.90
2018-09-27T08:35:23.694Z,16.20
2018-09-27T08:37:53.404Z,14.10
2018-09-27T08:40:22.903Z,15.63
2018-09-27T08:42:52.345Z,13.47
2018-09-27T08:45:21.504Z,15.53
2018-09-27T08:47:50.535Z,13.60
2018-09-27T08:50:19.513Z,12.43
2018-09-27T08:52:48.582Z,13.63
2018-09-27T08:55:18.068Z,13.03
2018-09-27T08:57:47.164Z,12.27
2018-09-27T09:00:16.268Z,15.83
2018-09-27T09:02:45.230Z,15.70
2018-09-27T09:05:14.250Z,17.50
2018-09-27T09:07:44.308Z,12.47
2018-09-27T09:10:13.931Z,11.70
2018-09-27T09:12:45.109Z,14.10
2018-09-27T09:15:14.048Z,17.98
2018-09-27T09:17:44.107Z,17.57
2018-09-27T09:20:13.294Z,15.50
2018-09-27T09:22:42.912Z,13.90
2018-09-27T09:25:12.813Z,16.70
2018-09-27T09:27:42.727Z,17.10
2018-09-27T09:30:11.711Z,16.97
2018-09-27T09:32:40.633Z,19.73
2018-09-27T09:35:10.239Z,17.80
2018-09-27T09:37:39.369Z,18.77
2018-09-27T09:40:09.406Z,16.70
2018-09-27T09:42:38.392Z,17.63
2018-09-27T09:45:07.495Z,18.05
2018-09-27T09:47:36.778Z,17.20
2018-09-27T09:50:05.976Z,19.73
2018-09-27T09:52:35.052Z,18.15
2018-09-27T09:55:04.383Z,19.25
2018-09-27T09:57:33.573Z,18.23
2018-09-27T10:00:02.618Z,19.47
2018-09-27T10:02:31.562Z,18.23
2018-09-27T10:05:00.398Z,16.50
2018-09-27T10:07:29.471Z,18.15
2018-09-27T10:09:58.386Z,18.05
2018-09-27T10:12:27.764Z,17.53
2018-09-27T10:14:57.443Z,15.58
2018-09-27T10:17:26.385Z,18.80
2018-09-27T10:19:56.383Z,19.80
2018-09-27T10:22:25.489Z,17.05
2018-09-27T10:24:54.472Z,18.65
2018-09-27T10:27:23.378Z,17.77
2018-09-27T10:29:53.213Z,16.75
2018-09-27T10:32:22.727Z,14.13
2018-09-27T10:34:51.755Z,14.20
2018-09-27T10:37:21.017Z,14.97
2018-09-27T10:39:50.404Z,16.77
2018-09-27T10:42:20.386Z,17.80
2018-09-27T10:44:49.457Z,15.60
2018-09-27T10:47:18.677Z,13.07
2018-09-27T10:49:47.744Z,18.93
2018-09-27T10:52:16.824Z,13.90
2018-09-27T10:54:46.748Z,18.65
2018-09-27T10:57:17.076Z,16.57
2018-09-27T10:59:46.957Z,11.57
2018-09-27T11:02:17.145Z,14.87
2018-09-27T11:04:47.268Z,13.13
2018-09-27T11:07:16.545Z,12.90
2018-09-27T11:09:46.182Z,10.33
2018-09-27T11:12:15.245Z,10.17
2018-09-27T11:14:44.307Z,12.43
2018-09-27T11:17:14.194Z,13.83
2018-09-27T11:19:43.794Z,12.93
2018-09-27T11:22:13.186Z,17.20
2018-09-27T11:29:43.520Z,13.27
2018-09-27T11:32:18.848Z,10.43
2018-09-27T11:34:47.981Z,8.93
2018-09-27T11:37:16.911Z,11.77
2018-09-27T11:39:46.041Z,11.43
2018-09-27T11:42:14.962Z,10.00
2018-09-27T11:44:43.885Z,8.63
2018-09-27T11:47:13.280Z,11.00
2018-09-27T11:49:42.736Z,11.70
2018-09-27T11:52:11.821Z,9.60
2018-09-27T11:54:40.938Z,10.10
2018-09-27T11:57:09.980Z,9.03
2018-09-27T11:59:40.143Z,10.15
2018-09-27T12:02:09.254Z,8.97
2018-09-27T12:04:38.448Z,10.03
2018-09-27T12:07:07.442Z,9.30
2018-09-27T12:09:36.673Z,10.88
2018-09-27T12:12:06.503Z,8.80
2018-09-27T12:14:35.413Z,9.80
2018-09-27T12:17:04.465Z,9.93
2018-09-27T12:19:33.482Z,7.77
2018-09-27T12:22:02.727Z,7.07
2018-09-27T12:24:31.765Z,12.78
2018-09-27T12:27:00.962Z,10.93
2018-09-27T12:29:30.139Z,10.10
2018-09-27T12:31:59.271Z,9.95
2018-09-27T12:34:28.426Z,7.07
2018-09-27T12:36:58.162Z,7.47
2018-09-27T12:39:27.272Z,8.35
2018-09-27T12:41:56.599Z,11.17
2018-09-27T12:44:25.678Z,9.03
2018-09-27T12:46:56.278Z,9.78
2018-09-27T12:49:26.065Z,10.05
2018-09-27T12:51:55.857Z,6.20
2018-09-27T12:54:24.836Z,8.05
2018-09-27T12:56:54.867Z,8.05
2018-09-27T12:59:24.467Z,8.13
2018-09-27T13:01:53.854Z,7.77
2018-09-27T13:04:22.851Z,10.63
2018-09-27T13:06:51.897Z,7.42
2018-09-27T13:09:22.063Z,7.30
2018-09-27T13:11:51.276Z,11.37
2018-09-27T13:14:21.306Z,8.77
2018-09-27T13:16:50.368Z,4.73
2018-09-27T13:19:19.580Z,6.30
2018-09-27T13:21:49.204Z,7.73
2018-09-27T13:24:18.246Z,5.07
2018-09-27T13:26:47.761Z,9.10
2018-09-27T13:29:16.833Z,7.40
2018-09-27T13:31:45.916Z,4.67
2018-09-27T13:34:15.031Z,6.30
2018-09-27T13:36:44.028Z,4.33
2018-09-27T13:39:13.291Z,5.93
2018-09-27T13:41:42.256Z,8.00
2018-09-27T13:44:11.377Z,5.53
2018-09-27T13:46:40.549Z,8.43
2018-09-27T13:49:10.639Z,6.10
2018-09-27T13:51:40.444Z,8.00
2018-09-27T13:54:10.501Z,5.15
2018-09-27T13:56:39.885Z,8.97
2018-09-27T13:59:09.226Z,9.15
2018-09-27T14:01:38.924Z,6.63
2018-09-27T14:04:08.199Z,5.70
2018-09-27T14:06:38.063Z,9.27
2018-09-27T14:09:08.897Z,6.53
2018-09-27T14:11:38.789Z,6.50
2018-09-27T14:14:07.908Z,9.03
2018-09-27T14:16:37.632Z,10.00
2018-09-27T14:19:06.819Z,8.53
2018-09-27T14:21:35.892Z,6.47
2018-09-27T14:24:05.429Z,7.17
2018-09-27T14:26:34.641Z,9.80
2018-09-27T14:29:04.025Z,4.43
2018-09-27T14:31:33.136Z,5.40
2018-09-27T14:38:58.924Z,8.20
2018-09-27T14:41:28.164Z,7.30
2018-09-27T14:43:57.276Z,7.17
2018-09-27T14:46:26.530Z,7.57
2018-09-27T14:48:55.777Z,6.70
2018-09-27T14:51:24.900Z,8.00
2018-09-27T14:53:53.891Z,5.80
2018-09-27T14:56:23.008Z,7.53
2018-09-27T14:58:52.185Z,5.17
2018-09-27T15:01:21.337Z,7.37
2018-09-27T15:03:51.089Z,7.23
2018-09-27T15:06:20.890Z,8.60
2018-09-27T15:08:50.237Z,5.23
2018-09-27T15:11:19.400Z,4.73
2018-09-27T15:13:48.453Z,5.80
2018-09-27T15:16:17.858Z,4.83
2018-09-27T15:18:47.177Z,7.00
2018-09-27T15:21:16.808Z,6.27
2018-09-27T15:23:45.834Z,7.37
2018-09-27T15:26:15.221Z,8.38
2018-09-27T15:28:44.409Z,9.48
2018-09-27T15:31:13.590Z,8.90
2018-09-27T15:33:42.716Z,10.93
2018-09-27T15:36:11.940Z,8.58
2018-09-27T15:38:41.206Z,9.15
2018-09-27T15:41:10.777Z,11.77
2018-09-27T15:43:40.039Z,9.83
2018-09-27T15:46:09.207Z,7.47
2018-09-27T15:48:38.328Z,12.53
2018-09-27T15:51:07.590Z,8.90
2018-09-27T16:23:18.473Z,7.47
2018-09-27T16:25:47.506Z,9.53
2018-09-27T16:28:16.786Z,8.65
2018-09-27T16:30:46.022Z,8.63
2018-09-27T16:33:15.161Z,7.10
2018-09-27T16:35:44.440Z,11.37
2018-09-27T16:38:13.922Z,8.60
2018-09-27T16:40:42.918Z,8.40
2018-09-27T16:43:11.896Z,8.83
2018-09-27T16:45:41.465Z,6.47
2018-09-27T16:48:10.648Z,7.83
2018-09-27T16:50:39.975Z,7.07
2018-09-27T16:53:09.149Z,6.97
2018-09-27T16:55:38.604Z,4.83
2018-09-27T16:58:08.509Z,7.63
2018-09-27T17:00:37.976Z,5.80
2018-09-27T17:03:07.652Z,7.07
2018-09-27T17:05:36.640Z,4.23
2018-09-27T17:08:05.777Z,6.43
2018-09-27T17:10:34.963Z,4.27
2018-09-27T17:13:04.671Z,8.17
2018-09-27T17:15:33.732Z,3.87
2018-09-27T17:18:03.651Z,3.40
2018-09-27T17:20:32.793Z,5.80
2018-09-27T17:23:01.952Z,4.87
2018-09-27T17:25:31.750Z,5.03
2018-09-27T17:28:00.933Z,5.97
2018-09-27T17:30:30.212Z,5.80
2018-09-27T17:32:59.325Z,8.13
2018-09-27T17:35:29.265Z,5.23
2018-09-27T17:37:58.432Z,7.03
2018-09-27T17:40:27.571Z,6.47
2018-09-27T17:42:57.634Z,5.27
2018-09-27T17:45:27.300Z,7.93
2018-09-27T17:47:56.493Z,9.47
2018-09-27T17:50:25.588Z,4.17
2018-09-27T17:52:54.735Z,6.08
2018-09-27T17:55:23.942Z,7.47
2018-09-27T17:57:53.040Z,6.77
2018-09-27T18:00:22.249Z,7.12
2018-09-27T18:02:52.619Z,5.77
2018-09-27T18:05:21.799Z,5.37
2018-09-27T18:07:51.100Z,5.70
2018-09-27T18:10:20.931Z,6.33
2018-09-27T18:12:50.022Z,6.53
2018-09-27T18:15:19.178Z,9.98
2018-09-27T18:17:48.278Z,8.50
2018-09-27T18:20:17.771Z,7.03
2018-09-27T18:22:47.984Z,6.40
2018-09-27T18:25:17.905Z,6.83
2018-09-27T18:27:47.099Z,8.50
2018-09-27T18:30:16.290Z,5.75
2018-09-27T18:32:45.381Z,7.78
2018-09-27T18:35:14.584Z,6.90
2018-09-27T18:37:43.805Z,7.60
2018-09-27T18:40:13.737Z,7.00
2018-09-27T18:42:43.206Z,6.27
2018-09-27T18:45:12.499Z,8.28
2018-09-27T18:47:42.350Z,7.53
2018-09-27T18:50:11.890Z,7.12
2018-09-27T18:52:41.224Z,6.90
2018-09-27T18:55:10.428Z,8.80
2018-09-27T18:57:39.844Z,7.72
2018-09-27T19:00:42.101Z,6.65
2018-09-27T19:03:11.209Z,6.00
2018-09-27T19:05:40.526Z,7.00
2018-09-27T19:08:10.989Z,9.93
2018-09-27T19:10:40.246Z,11.40
2018-09-27T19:13:09.348Z,10.38
2018-09-27T19:15:38.603Z,9.07
2018-09-27T19:18:07.859Z,10.50
2018-09-27T19:20:37.126Z,9.10
2018-09-27T19:23:07.608Z,7.28
2018-09-27T19:25:36.846Z,8.10
2018-09-27T19:28:06.226Z,9.33
2018-09-27T19:30:35.432Z,8.00
2018-09-27T19:33:05.429Z,8.78
2018-09-27T19:35:35.464Z,9.00
2018-09-27T19:38:04.496Z,7.67
2018-09-27T19:40:33.646Z,7.80
2018-09-27T19:43:02.723Z,7.58
2018-09-27T19:45:31.980Z,8.17
2018-09-27T19:48:01.132Z,11.85
2018-09-27T19:50:30.801Z,14.10
2018-09-27T19:52:59.905Z,14.17
2018-09-27T19:55:29.097Z,11.55
2018-09-27T19:57:58.409Z,10.93
2018-09-27T20:00:27.615Z,7.67
2018-09-27T20:02:56.673Z,8.78
2018-09-27T20:05:25.867Z,13.83
2018-09-27T20:07:55.336Z,10.38
2018-09-27T20:10:24.525Z,9.18
2018-09-27T20:12:53.746Z,7.50
2018-09-27T20:15:23.081Z,8.48
2018-09-27T20:17:52.130Z,9.00
2018-09-27T20:20:21.267Z,7.57
2018-09-27T20:22:50.424Z,10.70
2018-09-27T20:25:19.433Z,10.67
2018-09-27T20:27:48.548Z,11.53
2018-09-27T20:30:17.747Z,8.53
2018-09-27T20:32:46.680Z,5.83
2018-09-27T20:35:15.829Z,8.10
2018-09-27T20:37:44.981Z,7.00
2018-09-27T20:40:13.938Z,8.35
2018-09-27T20:42:44.190Z,7.80
2018-09-27T20:45:13.521Z,9.00
2018-09-27T20:47:42.741Z,7.83
2018-09-27T20:50:14.402Z,8.55
2018-09-27T20:52:43.482Z,8.28
2018-09-27T20:55:12.511Z,7.65
2018-09-27T20:57:41.673Z,6.70
2018-09-27T21:00:11.688Z,8.27
2018-09-27T21:02:40.824Z,8.53
2018-09-27T21:05:09.980Z,9.28
2018-09-27T21:07:38.928Z,15.33
2018-09-27T21:10:08.147Z,13.43
2018-09-27T21:12:37.345Z,12.67
2018-09-27T21:15:07.079Z,13.78
2018-09-27T21:17:37.055Z,13.48
2018-09-27T21:20:06.319Z,12.23
2018-09-27T21:22:35.264Z,11.33
2018-09-27T21:25:08.384Z,11.80
2018-09-27T21:27:38.137Z,9.25
2018-09-27T21:30:07.327Z,7.35
2018-09-27T21:32:36.444Z,8.03
2018-09-27T21:35:06.234Z,8.57
2018-09-27T21:37:35.415Z,9.95
2018-09-27T21:40:04.690Z,10.03
2018-09-27T21:42:33.799Z,8.43
2018-09-27T21:45:03.742Z,6.65
2018-09-27T21:47:32.753Z,7.97
2018-09-27T21:50:01.931Z,9.15
2018-09-27T21:52:31.135Z,8.70
2018-09-27T21:55:00.422Z,9.70
2018-09-27T21:57:29.385Z,11.45
2018-09-27T21:59:58.561Z,10.55
2018-09-27T22:02:27.537Z,8.08
2018-09-27T22:04:56.748Z,10.45
2018-09-27T22:07:26.671Z,8.20
2018-09-27T22:09:57.129Z,6.57
2018-09-27T22:12:27.199Z,9.43
2018-09-27T22:14:56.312Z,7.85
2018-09-27T22:17:25.420Z,9.77
2018-09-27T22:19:56.290Z,7.67
2018-09-27T22:22:26.285Z,10.20
2018-09-27T22:24:55.424Z,9.55
2018-09-27T22:27:26.075Z,8.98
2018-09-27T22:29:55.112Z,8.70
2018-09-27T22:32:24.321Z,9.35
2018-09-27T22:34:53.506Z,9.85
2018-09-27T22:37:22.658Z,12.63
2018-09-27T22:39:51.785Z,13.22
2018-09-27T22:42:20.991Z,11.22
2018-09-27T22:44:50.114Z,11.25
2018-09-27T22:47:19.738Z,13.88
2018-09-27T22:49:49.522Z,11.12
2018-09-27T22:52:18.766Z,11.68
2018-09-27T22:54:47.796Z,12.18
2018-09-27T22:57:16.901Z,13.70
2018-09-27T22:59:46.841Z,13.45
2018-09-27T23:02:15.795Z,13.50
2018-09-27T23:04:44.839Z,10.63
2018-09-27T23:07:14.018Z,11.87
2018-09-27T23:09:43.128Z,12.43
2018-09-27T23:12:12.312Z,12.55
2018-09-27T23:14:41.634Z,13.75
2018-09-27T23:17:10.942Z,9.40
2018-09-27T23:19:40.240Z,12.23
2018-09-27T23:22:09.525Z,11.43
2018-09-27T23:24:38.746Z,12.73
2018-09-27T23:27:07.804Z,10.20
2018-09-27T23:29:37.538Z,11.00
2018-09-27T23:32:06.766Z,11.57
2018-09-27T23:34:35.989Z,13.95
2018-09-27T23:37:05.067Z,14.00
2018-09-27T23:39:34.379Z,14.87
2018-09-27T23:42:03.385Z,15.28
2018-09-27T23:44:32.378Z,15.90
2018-09-27T23:47:01.558Z,12.15
2018-09-27T23:49:30.683Z,10.73
2018-09-27T23:51:59.793Z,17.40
2018-09-27T23:54:28.694Z,16.23
2018-09-27T23:56:57.963Z,16.25
2018-09-27T23:59:27.146Z,15.78
